Acadiana Regional Airport New Iberia US
ICAO: KARA
IATA: ARA
Category: Medium
Scheduled Services: No

Elevation: 24 ft
TransAlt. 18000 ft.

Airport Communications:
LAFAYETTE APP/DEP:121.1
CLNC DEL:121.7
CTAF:125
GND:121.7
TWR:125
UNICOM:122.95

KARA Zoom In..

Runways:

(A) RW 16 length 8002 ft width 200 ft
---- / hdg 165

(B) RW 34 length 8002 ft width 200 ft
ILS 108.90 / hdg 345

Location; KARA
Day. 23 / Time. 07.53 Zulu
* Altimeter: 29.83
* Temperature: 28° c. 82.4°f.
* Wind from: 260° Speed 05 kn.
Dewpoint: 26° c.
Visibility: 10 Statute Miles.
Clouds: Clear (automated report).

KARA 230753Z AUTO 26005KT 10SM CLR 28/26 A2983 RMK AO2 SLP101 T02830256 $


Wind From 260°
Speed 05 kn.

 
 
jpsmedia.com for Web Design worldairports.se 2018   terms of use